sensor_id;sensor_type;location;lat;lon;timestamp;temperature;humidity
22426;DHT22;11380;50.822;15.790;2023-02-26T00:01:34;-0.80;99.90
22426;DHT22;11380;50.822;15.790;2023-02-26T00:06:41;-0.80;99.90
22426;DHT22;11380;50.822;15.790;2023-02-26T00:11:50;-0.90;99.90
22426;DHT22;11380;50.822;15.790;2023-02-26T00:22:22;-1.00;99.90
22426;DHT22;11380;50.822;15.790;2023-02-26T00:27:30;-1.10;99.90
22426;DHT22;11380;50.822;15.790;2023-02-26T00:32:37;-1.10;99.90
22426;DHT22;11380;50.822;15.790;2023-02-26T00:38:04;-1.10;99.90
22426;DHT22;11380;50.822;15.790;2023-02-26T00:43:23;-1.00;99.90
22426;DHT22;11380;50.822;15.790;2023-02-26T00:54:16;-1.00;92.30
22426;DHT22;11380;50.822;15.790;2023-02-26T00:59:27;-1.00;71.40
22426;DHT22;11380;50.822;15.790;2023-02-26T01:04:35;-1.00;39.10
22426;DHT22;11380;50.822;15.790;2023-02-26T01:09:44;-1.00;13.80
22426;DHT22;11380;50.822;15.790;2023-02-26T01:14:50;-1.00;18.30
22426;DHT22;11380;50.822;15.790;2023-02-26T01:20:11;-1.00;44.80
22426;DHT22;11380;50.822;15.790;2023-02-26T01:25:38;-1.10;61.80
22426;DHT22;11380;50.822;15.790;2023-02-26T01:30:46;-1.10;85.20
22426;DHT22;11380;50.822;15.790;2023-02-26T01:36:08;-1.20;23.20
22426;DHT22;11380;50.822;15.790;2023-02-26T01:41:25;-1.10;25.70
22426;DHT22;11380;50.822;15.790;2023-02-26T01:47:01;-1.10;10.90
22426;DHT22;11380;50.822;15.790;2023-02-26T01:57:59;-1.10;1.00
22426;DHT22;11380;50.822;15.790;2023-02-26T02:03:09;-1.20;1.00
22426;DHT22;11380;50.822;15.790;2023-02-26T02:08:18;-1.20;1.00
22426;DHT22;11380;50.822;15.790;2023-02-26T02:36:05;-1.20;65.80
22426;DHT22;11380;50.822;15.790;2023-02-26T02:41:29;-1.20;76.70
22426;DHT22;11380;50.822;15.790;2023-02-26T02:46:35;-1.20;54.00
22426;DHT22;11380;50.822;15.790;2023-02-26T02:51:53;-1.20;70.10
22426;DHT22;11380;50.822;15.790;2023-02-26T02:57:18;-1.20;99.90
22426;DHT22;11380;50.822;15.790;2023-02-26T03:02:44;-1.10;99.90
22426;DHT22;11380;50.822;15.790;2023-02-26T03:08:02;-1.20;99.90
22426;DHT22;11380;50.822;15.790;2023-02-26T03:13:20;-1.10;98.70
22426;DHT22;11380;50.822;15.790;2023-02-26T03:19:03;-1.20;1.00
22426;DHT22;11380;50.822;15.790;2023-02-26T03:24:21;-1.20;1.00
22426;DHT22;11380;50.822;15.790;2023-02-26T03:35:04;-1.20;1.00
22426;DHT22;11380;50.822;15.790;2023-02-26T03:40:18;-1.20;1.00
22426;DHT22;11380;50.822;15.790;2023-02-26T03:45:30;-1.20;1.00
22426;DHT22;11380;50.822;15.790;2023-02-26T03:50:44;-1.20;1.00
22426;DHT22;11380;50.822;15.790;2023-02-26T03:56:10;-1.20;1.00
22426;DHT22;11380;50.822;15.790;2023-02-26T04:01:32;-1.20;1.00
22426;DHT22;11380;50.822;15.790;2023-02-26T04:06:40;-1.20;1.00
22426;DHT22;11380;50.822;15.790;2023-02-26T04:11:49;-1.20;1.00
22426;DHT22;11380;50.822;15.790;2023-02-26T04:17:00;-1.30;1.00
22426;DHT22;11380;50.822;15.790;2023-02-26T04:22:07;-1.20;1.00
22426;DHT22;11380;50.822;15.790;2023-02-26T04:27:15;-1.20;1.00
22426;DHT22;11380;50.822;15.790;2023-02-26T04:32:23;-1.20;1.00
22426;DHT22;11380;50.822;15.790;2023-02-26T04:37:30;-1.30;1.00
22426;DHT22;11380;50.822;15.790;2023-02-26T04:42:38;-1.20;1.00
22426;DHT22;11380;50.822;15.790;2023-02-26T04:47:46;-1.30;1.00
22426;DHT22;11380;50.822;15.790;2023-02-26T04:52:53;-1.20;1.00
22426;DHT22;11380;50.822;15.790;2023-02-26T04:58:04;-1.20;1.00
22426;DHT22;11380;50.822;15.790;2023-02-26T05:03:11;-1.30;1.00
22426;DHT22;11380;50.822;15.790;2023-02-26T05:08:18;-1.30;1.00
22426;DHT22;11380;50.822;15.790;2023-02-26T05:13:26;-1.40;1.00
22426;DHT22;11380;50.822;15.790;2023-02-26T05:18:33;-1.50;1.00
22426;DHT22;11380;50.822;15.790;2023-02-26T05:23:41;-1.40;1.00
22426;DHT22;11380;50.822;15.790;2023-02-26T05:28:48;-1.40;1.00
22426;DHT22;11380;50.822;15.790;2023-02-26T05:33:55;-1.40;1.00
22426;DHT22;11380;50.822;15.790;2023-02-26T05:39:03;-1.50;1.00
22426;DHT22;11380;50.822;15.790;2023-02-26T05:44:11;-1.40;1.00
22426;DHT22;11380;50.822;15.790;2023-02-26T05:49:19;-1.40;1.00
22426;DHT22;11380;50.822;15.790;2023-02-26T05:54:26;-1.40;1.00
22426;DHT22;11380;50.822;15.790;2023-02-26T05:59:34;-1.40;1.00
22426;DHT22;11380;50.822;15.790;2023-02-26T06:04:43;-1.40;1.00
22426;DHT22;11380;50.822;15.790;2023-02-26T06:09:50;-1.30;1.00
22426;DHT22;11380;50.822;15.790;2023-02-26T06:14:57;-1.30;1.00
22426;DHT22;11380;50.822;15.790;2023-02-26T06:20:05;-1.30;1.00
22426;DHT22;11380;50.822;15.790;2023-02-26T06:25:13;-1.30;1.00
22426;DHT22;11380;50.822;15.790;2023-02-26T06:30:21;-1.30;1.00
22426;DHT22;11380;50.822;15.790;2023-02-26T06:35:28;-1.40;1.00
22426;DHT22;11380;50.822;15.790;2023-02-26T06:40:35;-1.40;1.00
22426;DHT22;11380;50.822;15.790;2023-02-26T06:45:42;-1.40;1.00
22426;DHT22;11380;50.822;15.790;2023-02-26T06:50:51;-1.40;1.00
22426;DHT22;11380;50.822;15.790;2023-02-26T06:55:58;-1.30;1.00
22426;DHT22;11380;50.822;15.790;2023-02-26T07:01:06;-1.30;1.00
22426;DHT22;11380;50.822;15.790;2023-02-26T07:06:15;-1.20;1.00
22426;DHT22;11380;50.822;15.790;2023-02-26T07:11:24;-1.00;1.00
22426;DHT22;11380;50.822;15.790;2023-02-26T07:16:31;-1.10;1.00
22426;DHT22;11380;50.822;15.790;2023-02-26T07:21:39;-1.10;1.00
22426;DHT22;11380;50.822;15.790;2023-02-26T07:26:46;-1.20;1.00
22426;DHT22;11380;50.822;15.790;2023-02-26T07:31:54;-0.90;1.00
22426;DHT22;11380;50.822;15.790;2023-02-26T07:37:05;-1.10;1.00
22426;DHT22;11380;50.822;15.790;2023-02-26T07:42:13;-1.10;1.00
22426;DHT22;11380;50.822;15.790;2023-02-26T07:48:43;-1.10;1.00
22426;DHT22;11380;50.822;15.790;2023-02-26T07:53:49;-1.00;1.00
22426;DHT22;11380;50.822;15.790;2023-02-26T07:58:56;-1.10;1.00
22426;DHT22;11380;50.822;15.790;2023-02-26T08:04:04;-1.00;1.00
22426;DHT22;11380;50.822;15.790;2023-02-26T08:09:12;-0.80;1.00
22426;DHT22;11380;50.822;15.790;2023-02-26T08:14:20;-0.70;1.00
22426;DHT22;11380;50.822;15.790;2023-02-26T08:19:28;-0.80;1.00
22426;DHT22;11380;50.822;15.790;2023-02-26T08:24:35;-1.10;1.00
22426;DHT22;11380;50.822;15.790;2023-02-26T08:29:43;-0.80;1.00
22426;DHT22;11380;50.822;15.790;2023-02-26T08:34:50;-1.00;1.00
22426;DHT22;11380;50.822;15.790;2023-02-26T08:39:58;-0.80;1.00
22426;DHT22;11380;50.822;15.790;2023-02-26T08:45:06;-0.50;1.00
22426;DHT22;11380;50.822;15.790;2023-02-26T08:50:14;-0.40;1.00
22426;DHT22;11380;50.822;15.790;2023-02-26T08:55:23;-0.40;1.00
22426;DHT22;11380;50.822;15.790;2023-02-26T09:00:32;-0.80;1.00
22426;DHT22;11380;50.822;15.790;2023-02-26T09:05:40;-1.10;1.00
22426;DHT22;11380;50.822;15.790;2023-02-26T09:10:48;-0.70;1.00
22426;DHT22;11380;50.822;15.790;2023-02-26T09:15:56;-0.30;1.00
22426;DHT22;11380;50.822;15.790;2023-02-26T09:21:04;-0.20;1.00
22426;DHT22;11380;50.822;15.790;2023-02-26T09:26:11;0.10;1.00
22426;DHT22;11380;50.822;15.790;2023-02-26T09:31:20;0.10;1.00
22426;DHT22;11380;50.822;15.790;2023-02-26T09:36:30;0.00;1.00
22426;DHT22;11380;50.822;15.790;2023-02-26T09:41:44;0.30;1.00
22426;DHT22;11380;50.822;15.790;2023-02-26T09:47:16;0.50;1.00
22426;DHT22;11380;50.822;15.790;2023-02-26T09:52:31;0.50;1.00
22426;DHT22;11380;50.822;15.790;2023-02-26T09:57:44;0.30;1.00
22426;DHT22;11380;50.822;15.790;2023-02-26T10:08:16;0.90;1.00
22426;DHT22;11380;50.822;15.790;2023-02-26T10:13:33;0.60;1.00
22426;DHT22;11380;50.822;15.790;2023-02-26T10:18:47;0.50;1.00
22426;DHT22;11380;50.822;15.790;2023-02-26T10:40:33;0.30;1.00
22426;DHT22;11380;50.822;15.790;2023-02-26T10:46:06;0.30;1.00
22426;DHT22;11380;50.822;15.790;2023-02-26T10:51:35;0.20;1.00
22426;DHT22;11380;50.822;15.790;2023-02-26T10:56:44;0.40;1.00
22426;DHT22;11380;50.822;15.790;2023-02-26T11:01:52;0.50;1.00
22426;DHT22;11380;50.822;15.790;2023-02-26T11:07:03;0.50;1.00
22426;DHT22;11380;50.822;15.790;2023-02-26T11:12:13;0.50;1.00
22426;DHT22;11380;50.822;15.790;2023-02-26T11:17:26;0.70;1.00
22426;DHT22;11380;50.822;15.790;2023-02-26T11:22:36;0.70;1.00
22426;DHT22;11380;50.822;15.790;2023-02-26T11:27:44;1.00;1.00
22426;DHT22;11380;50.822;15.790;2023-02-26T11:32:56;1.00;1.00
22426;DHT22;11380;50.822;15.790;2023-02-26T11:38:05;1.30;1.00
22426;DHT22;11380;50.822;15.790;2023-02-26T11:43:20;1.10;1.00
22426;DHT22;11380;50.822;15.790;2023-02-26T11:48:34;1.60;1.00
22426;DHT22;11380;50.822;15.790;2023-02-26T11:53:57;0.10;1.00
22426;DHT22;11380;50.822;15.790;2023-02-26T11:59:18;-0.50;1.00
22426;DHT22;11380;50.822;15.790;2023-02-26T12:04:27;0.10;1.00
22426;DHT22;11380;50.822;15.790;2023-02-26T12:09:35;0.20;1.00
22426;DHT22;11380;50.822;15.790;2023-02-26T12:31:43;-0.60;1.00
22426;DHT22;11380;50.822;15.790;2023-02-26T12:42:44;0.10;1.00
22426;DHT22;11380;50.822;15.790;2023-02-26T12:59:27;0.80;1.00
22426;DHT22;11380;50.822;15.790;2023-02-26T13:04:56;1.00;1.00
22426;DHT22;11380;50.822;15.790;2023-02-26T13:21:13;0.80;1.00
22426;DHT22;11380;50.822;15.790;2023-02-26T13:26:18;2.00;1.00
22426;DHT22;11380;50.822;15.790;2023-02-26T13:31:32;2.00;1.00
22426;DHT22;11380;50.822;15.790;2023-02-26T13:36:50;1.70;1.00
22426;DHT22;11380;50.822;15.790;2023-02-26T13:42:36;0.10;1.00
22426;DHT22;11380;50.822;15.790;2023-02-26T13:58:43;1.20;1.00
22426;DHT22;11380;50.822;15.790;2023-02-26T14:04:21;1.70;1.00
22426;DHT22;11380;50.822;15.790;2023-02-26T14:20:25;-0.30;1.00
22426;DHT22;11380;50.822;15.790;2023-02-26T14:25:44;0.30;1.00
22426;DHT22;11380;50.822;15.790;2023-02-26T14:31:06;0.80;1.00
22426;DHT22;11380;50.822;15.790;2023-02-26T14:36:42;1.60;1.00
22426;DHT22;11380;50.822;15.790;2023-02-26T14:41:59;1.30;1.00
22426;DHT22;11380;50.822;15.790;2023-02-26T14:47:11;1.40;1.00
22426;DHT22;11380;50.822;15.790;2023-02-26T14:52:44;1.40;1.00
22426;DHT22;11380;50.822;15.790;2023-02-26T15:08:49;0.80;1.00
22426;DHT22;11380;50.822;15.790;2023-02-26T15:24:54;-1.10;99.90
22426;DHT22;11380;50.822;15.790;2023-02-26T15:30:02;-0.60;99.90
22426;DHT22;11380;50.822;15.790;2023-02-26T15:35:18;-0.30;99.90
22426;DHT22;11380;50.822;15.790;2023-02-26T15:40:32;0.00;99.90
22426;DHT22;11380;50.822;15.790;2023-02-26T15:45:44;-0.10;99.00
22426;DHT22;11380;50.822;15.790;2023-02-26T15:50:53;-0.20;1.00
22426;DHT22;11380;50.822;15.790;2023-02-26T15:56:05;-0.20;1.00
22426;DHT22;11380;50.822;15.790;2023-02-26T16:01:20;-0.50;1.00
22426;DHT22;11380;50.822;15.790;2023-02-26T16:06:36;-0.40;1.00
22426;DHT22;11380;50.822;15.790;2023-02-26T16:11:54;-0.20;1.00
22426;DHT22;11380;50.822;15.790;2023-02-26T16:17:04;-0.10;1.00
22426;DHT22;11380;50.822;15.790;2023-02-26T16:22:24;-0.10;1.00
22426;DHT22;11380;50.822;15.790;2023-02-26T16:27:34;-0.10;1.00
22426;DHT22;11380;50.822;15.790;2023-02-26T16:32:43;0.00;1.00
22426;DHT22;11380;50.822;15.790;2023-02-26T16:37:53;-0.20;1.00
22426;DHT22;11380;50.822;15.790;2023-02-26T16:54:07;-0.30;1.00
22426;DHT22;11380;50.822;15.790;2023-02-26T16:59:24;-0.30;1.00
22426;DHT22;11380;50.822;15.790;2023-02-26T17:04:35;-0.50;1.00
22426;DHT22;11380;50.822;15.790;2023-02-26T17:09:48;-0.50;1.00
22426;DHT22;11380;50.822;15.790;2023-02-26T17:14:59;-0.60;1.00
22426;DHT22;11380;50.822;15.790;2023-02-26T17:20:09;-0.60;1.00
22426;DHT22;11380;50.822;15.790;2023-02-26T17:25:18;-0.60;1.00
22426;DHT22;11380;50.822;15.790;2023-02-26T17:30:26;-0.50;1.00
22426;DHT22;11380;50.822;15.790;2023-02-26T17:35:35;-0.30;1.00
22426;DHT22;11380;50.822;15.790;2023-02-26T17:40:45;-0.30;1.00
22426;DHT22;11380;50.822;15.790;2023-02-26T17:45:54;-0.50;1.00
22426;DHT22;11380;50.822;15.790;2023-02-26T17:51:01;-0.60;1.00
22426;DHT22;11380;50.822;15.790;2023-02-26T17:56:31;-0.60;1.00
22426;DHT22;11380;50.822;15.790;2023-02-26T18:01:41;-0.50;1.00
22426;DHT22;11380;50.822;15.790;2023-02-26T18:06:49;-0.50;1.00
22426;DHT22;11380;50.822;15.790;2023-02-26T18:11:58;-0.60;1.00
22426;DHT22;11380;50.822;15.790;2023-02-26T18:17:06;-0.80;1.00
22426;DHT22;11380;50.822;15.790;2023-02-26T18:22:18;-0.50;1.00
22426;DHT22;11380;50.822;15.790;2023-02-26T18:27:28;-0.50;1.00
22426;DHT22;11380;50.822;15.790;2023-02-26T18:32:35;-0.50;1.00
22426;DHT22;11380;50.822;15.790;2023-02-26T18:37:43;-0.50;1.00
22426;DHT22;11380;50.822;15.790;2023-02-26T18:42:51;-0.50;1.00
22426;DHT22;11380;50.822;15.790;2023-02-26T18:47:59;-0.50;1.00
22426;DHT22;11380;50.822;15.790;2023-02-26T18:53:07;-0.50;1.00
22426;DHT22;11380;50.822;15.790;2023-02-26T18:58:15;-0.40;1.00
22426;DHT22;11380;50.822;15.790;2023-02-26T19:03:22;-0.40;1.00
22426;DHT22;11380;50.822;15.790;2023-02-26T19:08:31;-0.50;1.00
22426;DHT22;11380;50.822;15.790;2023-02-26T19:13:40;-0.50;1.00
22426;DHT22;11380;50.822;15.790;2023-02-26T19:18:50;-0.70;1.00
22426;DHT22;11380;50.822;15.790;2023-02-26T19:24:02;-0.60;1.00
22426;DHT22;11380;50.822;15.790;2023-02-26T19:29:13;-0.60;1.00
22426;DHT22;11380;50.822;15.790;2023-02-26T19:34:22;-0.60;1.00
22426;DHT22;11380;50.822;15.790;2023-02-26T19:39:30;-0.70;1.00
22426;DHT22;11380;50.822;15.790;2023-02-26T19:44:38;-0.60;1.00
22426;DHT22;11380;50.822;15.790;2023-02-26T19:49:46;-0.60;1.00
22426;DHT22;11380;50.822;15.790;2023-02-26T19:54:53;-0.60;1.00
22426;DHT22;11380;50.822;15.790;2023-02-26T20:00:01;-0.60;1.00
22426;DHT22;11380;50.822;15.790;2023-02-26T20:05:10;-0.60;1.00
22426;DHT22;11380;50.822;15.790;2023-02-26T20:10:19;-0.60;1.00
22426;DHT22;11380;50.822;15.790;2023-02-26T20:15:27;-0.50;1.00
22426;DHT22;11380;50.822;15.790;2023-02-26T20:20:35;-0.40;1.00
22426;DHT22;11380;50.822;15.790;2023-02-26T20:25:42;-0.50;1.00
22426;DHT22;11380;50.822;15.790;2023-02-26T20:30:53;-0.50;1.00
22426;DHT22;11380;50.822;15.790;2023-02-26T20:36:03;-0.60;1.00
22426;DHT22;11380;50.822;15.790;2023-02-26T20:41:10;-0.50;1.00
22426;DHT22;11380;50.822;15.790;2023-02-26T20:46:17;-0.60;1.00
22426;DHT22;11380;50.822;15.790;2023-02-26T20:51:25;-0.70;1.00
22426;DHT22;11380;50.822;15.790;2023-02-26T20:56:34;-0.70;1.00
22426;DHT22;11380;50.822;15.790;2023-02-26T21:01:41;-0.70;1.00
22426;DHT22;11380;50.822;15.790;2023-02-26T21:06:49;-0.70;1.00
22426;DHT22;11380;50.822;15.790;2023-02-26T21:11:57;-0.70;1.00
22426;DHT22;11380;50.822;15.790;2023-02-26T21:17:05;-0.60;1.00
22426;DHT22;11380;50.822;15.790;2023-02-26T21:22:12;-0.70;1.00
22426;DHT22;11380;50.822;15.790;2023-02-26T21:27:20;-0.70;1.00
22426;DHT22;11380;50.822;15.790;2023-02-26T21:32:27;-0.70;1.00
22426;DHT22;11380;50.822;15.790;2023-02-26T21:37:35;-0.70;1.00
22426;DHT22;11380;50.822;15.790;2023-02-26T21:42:45;-0.70;1.00
22426;DHT22;11380;50.822;15.790;2023-02-26T21:47:52;-0.70;1.00
22426;DHT22;11380;50.822;15.790;2023-02-26T21:53:00;-0.70;1.00
22426;DHT22;11380;50.822;15.790;2023-02-26T21:58:08;-0.70;1.00
22426;DHT22;11380;50.822;15.790;2023-02-26T22:03:16;-0.60;1.00
22426;DHT22;11380;50.822;15.790;2023-02-26T22:08:26;-0.70;1.00
22426;DHT22;11380;50.822;15.790;2023-02-26T22:13:34;-0.80;1.00
22426;DHT22;11380;50.822;15.790;2023-02-26T22:18:42;-0.70;1.00
22426;DHT22;11380;50.822;15.790;2023-02-26T22:23:50;-0.70;1.00
22426;DHT22;11380;50.822;15.790;2023-02-26T22:28:57;-0.80;1.00
22426;DHT22;11380;50.822;15.790;2023-02-26T22:34:04;-0.90;1.00
22426;DHT22;11380;50.822;15.790;2023-02-26T22:39:12;-0.80;1.00
22426;DHT22;11380;50.822;15.790;2023-02-26T22:44:22;-0.90;1.00
22426;DHT22;11380;50.822;15.790;2023-02-26T22:49:30;-0.90;1.00
22426;DHT22;11380;50.822;15.790;2023-02-26T22:54:37;-0.90;1.00
22426;DHT22;11380;50.822;15.790;2023-02-26T22:59:45;-0.90;1.00
22426;DHT22;11380;50.822;15.790;2023-02-26T23:04:53;-0.90;1.00
22426;DHT22;11380;50.822;15.790;2023-02-26T23:10:02;-0.90;1.00
22426;DHT22;11380;50.822;15.790;2023-02-26T23:15:10;-1.00;1.00
22426;DHT22;11380;50.822;15.790;2023-02-26T23:20:19;-0.90;1.00
22426;DHT22;11380;50.822;15.790;2023-02-26T23:25:26;-1.00;1.00
22426;DHT22;11380;50.822;15.790;2023-02-26T23:30:36;-0.90;1.00
22426;DHT22;11380;50.822;15.790;2023-02-26T23:35:43;-0.90;1.00
22426;DHT22;11380;50.822;15.790;2023-02-26T23:40:53;-1.00;1.00
22426;DHT22;11380;50.822;15.790;2023-02-26T23:46:01;-0.90;1.00
22426;DHT22;11380;50.822;15.790;2023-02-26T23:51:08;-1.00;1.00
22426;DHT22;11380;50.822;15.790;2023-02-26T23:56:15;-1.00;1.00
